Palermo, Italy
Current Conditions -  °F | °C
As of 7:50 PM on Monday 20 Oct 2014 (Local Time) from LICJ Reporting Station
Few Clouds Few Clouds  
Wind Chill: 22°   Ceiling: Unl
Heat Index: 22°   Visibility: 6mi
Dew Point: 19°   Wind: 10mph
Humidity: 83%   Direction: 50°NE
Pressure: 30.12"   Gusts: NA
Location:  38.12°N, 13.36°E
Report Text: LICJ 201750Z 05009KT 9999 FEW018 22/19 Q1020
Loading
Personal Weather Stations






























Interactive Weather Map
Tropical Storm Tracking
New forecast layout! Learn more

10-Day Weather Forecast

Advertisements
Track Severe Weather on mobile